createdAt,value
2019-01-18T00:01:56.963Z,97244.50
2019-01-18T00:04:28.651Z,97237.44
2019-01-18T00:07:00.080Z,97243.12
2019-01-18T00:09:32.225Z,97246.07
2019-01-18T00:12:03.673Z,97240.84
2019-01-18T00:14:35.915Z,97242.19
2019-01-18T00:17:07.140Z,97242.42
2019-01-18T00:19:38.194Z,97244.84
2019-01-18T00:22:09.294Z,97245.33
2019-01-18T00:24:40.724Z,97245.33
2019-01-18T00:27:11.732Z,97245.66
2019-01-18T00:29:43.867Z,97249.11
2019-01-18T00:32:14.877Z,97232.73
2019-01-18T00:34:46.085Z,97243.77
2019-01-18T00:37:17.246Z,97242.37
2019-01-18T00:39:48.512Z,97242.37
2019-01-18T00:42:19.742Z,97231.39
2019-01-18T00:44:52.377Z,97238.04
2019-01-18T00:47:23.650Z,97239.58
2019-01-18T00:49:55.061Z,97244.70
2019-01-18T00:52:26.207Z,97250.34
2019-01-18T00:54:57.686Z,97255.16
2019-01-18T00:57:29.216Z,97245.97
2019-01-18T01:00:00.346Z,97255.34
2019-01-18T01:02:31.738Z,97252.09
2019-01-18T01:05:03.404Z,97242.37
2019-01-18T01:07:34.670Z,97247.20
2019-01-18T01:10:06.767Z,97242.04
2019-01-18T01:12:38.365Z,97243.12
2019-01-18T01:15:12.812Z,97236.92
2019-01-18T01:17:44.934Z,97248.02
2019-01-18T01:20:18.860Z,97249.32
2019-01-18T01:22:50.529Z,97253.36
2019-01-18T01:25:22.566Z,97256.83
2019-01-18T01:27:54.307Z,97255.78
2019-01-18T01:30:27.198Z,97266.02
2019-01-18T01:32:58.936Z,97268.98
2019-01-18T01:35:30.486Z,97268.71
2019-01-18T01:38:01.765Z,97271.36
2019-01-18T01:40:33.010Z,97274.88
2019-01-18T01:43:04.558Z,97285.30
2019-01-18T01:45:37.430Z,97279.39
2019-01-18T01:48:08.643Z,97280.48
2019-01-18T01:50:40.031Z,97293.70
2019-01-18T01:53:11.314Z,97296.23
2019-01-18T01:55:42.638Z,97308.09
2019-01-18T01:58:13.684Z,97302.59
2019-01-18T02:00:45.270Z,97325.42
2019-01-18T02:03:16.930Z,97340.61
2019-01-18T02:05:49.396Z,97350.83
2019-01-18T02:08:20.755Z,97346.50
2019-01-18T02:10:52.096Z,97368.14
2019-01-18T02:13:23.508Z,97370.45
2019-01-18T02:15:56.644Z,97359.95
2019-01-18T02:18:27.847Z,97357.32
2019-01-18T02:20:59.246Z,97348.16
2019-01-18T02:23:30.798Z,97351.45
2019-01-18T02:26:02.309Z,97358.66
2019-01-18T02:28:33.649Z,97354.13
2019-01-18T02:31:05.733Z,97353.61
2019-01-18T02:33:37.065Z,97350.32
2019-01-18T02:36:08.168Z,97352.86
2019-01-18T02:38:39.291Z,97344.55
2019-01-18T02:41:10.616Z,97341.05
2019-01-18T02:43:42.957Z,97341.56
2019-01-18T02:46:13.973Z,97328.69
2019-01-18T02:48:45.302Z,97330.30
2019-01-18T02:51:16.795Z,97330.30
2019-01-18T02:53:48.420Z,97331.42
2019-01-18T02:56:19.864Z,97331.42
2019-01-18T02:58:51.229Z,97338.33
2019-01-18T03:01:22.298Z,97331.64
2019-01-18T03:03:53.776Z,97340.94
2019-01-18T03:06:25.095Z,97345.54
2019-01-18T03:08:56.373Z,97340.86
2019-01-18T03:11:27.679Z,97321.04
2019-01-18T03:13:59.176Z,97320.69
2019-01-18T03:16:30.504Z,97327.29
2019-01-18T03:19:02.548Z,97323.45
2019-01-18T03:21:35.305Z,97331.48
2019-01-18T03:24:06.484Z,97335.44
2019-01-18T03:26:37.755Z,97346.05
2019-01-18T03:29:08.942Z,97332.65
2019-01-18T03:31:40.385Z,97335.42
2019-01-18T03:34:11.699Z,97334.94
2019-01-18T03:36:42.901Z,97342.84
2019-01-18T03:39:13.972Z,97338.88
2019-01-18T03:41:45.824Z,97331.42
2019-01-18T03:44:17.165Z,97337.39
2019-01-18T03:46:49.426Z,97338.73
2019-01-18T03:49:20.605Z,97337.67
2019-01-18T03:51:53.383Z,97340.14
2019-01-18T03:54:24.609Z,97343.71
2019-01-18T03:56:55.938Z,97347.28
2019-01-18T03:59:27.363Z,97340.85
2019-01-18T04:01:58.658Z,97339.81
2019-01-18T04:04:30.741Z,97338.72
2019-01-18T04:07:02.257Z,97338.78
2019-01-18T04:09:33.480Z,97331.56
2019-01-18T04:12:06.181Z,97336.31
2019-01-18T04:14:37.355Z,97343.26
2019-01-18T04:17:08.674Z,97342.30
2019-01-18T04:19:40.148Z,97338.69
2019-01-18T04:22:11.153Z,97342.48
2019-01-18T04:24:43.483Z,97338.89
2019-01-18T04:27:14.701Z,97351.58
2019-01-18T04:29:46.080Z,97343.54
2019-01-18T04:32:18.433Z,97342.97
2019-01-18T04:34:49.775Z,97352.80
2019-01-18T04:37:20.834Z,97354.64
2019-01-18T04:39:52.306Z,97353.02
2019-01-18T04:42:23.817Z,97365.13
2019-01-18T04:44:57.665Z,97360.38
2019-01-18T04:47:29.605Z,97373.39
2019-01-18T04:50:00.838Z,97371.92
2019-01-18T04:52:32.197Z,97388.64
2019-01-18T04:55:03.590Z,97392.52
2019-01-18T04:57:35.156Z,97409.03
2019-01-18T05:00:09.724Z,97430.70
2019-01-18T05:02:41.050Z,97444.27
2019-01-18T05:05:13.922Z,97460.72
2019-01-18T05:07:45.273Z,97452.02
2019-01-18T05:10:18.735Z,97456.11
2019-01-18T05:12:50.263Z,97477.70
2019-01-18T05:15:24.542Z,97466.69
2019-01-18T05:17:56.084Z,97476.44
2019-01-18T05:20:27.454Z,97495.13
2019-01-18T05:22:58.656Z,97480.18
2019-01-18T05:25:30.072Z,97470.36
2019-01-18T05:28:01.678Z,97470.36
2019-01-18T05:30:33.211Z,97493.70
2019-01-18T05:33:04.743Z,97494.53
2019-01-18T05:35:36.297Z,97484.04
2019-01-18T05:38:07.560Z,97489.38
2019-01-18T05:40:39.045Z,97481.69
2019-01-18T05:43:10.244Z,97496.69
2019-01-18T05:45:41.702Z,97496.19
2019-01-18T05:48:13.070Z,97490.20
2019-01-18T05:50:44.583Z,97495.04
2019-01-18T05:53:16.379Z,97503.66
2019-01-18T05:55:47.662Z,97516.91
2019-01-18T05:58:18.953Z,97508.39
2019-01-18T06:00:55.609Z,97512.58
2019-01-18T06:03:26.952Z,97504.88
2019-01-18T06:05:58.561Z,97517.78
2019-01-18T06:08:30.098Z,97539.46
2019-01-18T06:11:02.431Z,97517.13
2019-01-18T06:13:34.019Z,97518.04
2019-01-18T06:16:07.306Z,97523.05
2019-01-18T06:18:38.468Z,97537.73
2019-01-18T06:21:09.669Z,97535.16
2019-01-18T06:23:41.064Z,97540.72
2019-01-18T06:26:12.587Z,97548.10
2019-01-18T06:28:45.137Z,97565.30
2019-01-18T06:31:16.321Z,97571.98
2019-01-18T06:33:47.714Z,97567.28
2019-01-18T06:36:18.802Z,97562.69
2019-01-18T06:38:50.354Z,97557.39
2019-01-18T06:41:31.977Z,97560.47
2019-01-18T06:44:05.020Z,97559.42
2019-01-18T06:46:36.207Z,97569.19
2019-01-18T06:49:08.065Z,97574.84
2019-01-18T06:51:39.301Z,97577.52
2019-01-18T06:54:10.436Z,97573.61
2019-01-18T06:56:41.664Z,97590.14
2019-01-18T06:59:12.680Z,97606.90
2019-01-18T07:01:43.834Z,97610.08
2019-01-18T07:04:14.966Z,97620.78
2019-01-18T07:06:46.240Z,97620.78
2019-01-18T07:09:19.372Z,97629.81
2019-01-18T07:11:50.583Z,97636.06
2019-01-18T07:14:22.073Z,97651.45
2019-01-18T07:16:53.443Z,97666.58
2019-01-18T07:19:24.800Z,97653.55
2019-01-18T07:21:56.304Z,97666.85
2019-01-18T07:24:27.758Z,97677.27
2019-01-18T07:26:58.872Z,97704.81
2019-01-18T07:29:30.609Z,97712.89
2019-01-18T07:32:02.266Z,97728.02
2019-01-18T07:34:33.383Z,97701.50
2019-01-18T07:37:04.528Z,97733.02
2019-01-18T07:39:37.086Z,97756.30
2019-01-18T07:42:08.430Z,97729.97
2019-01-18T07:44:39.884Z,97739.38
2019-01-18T07:47:11.104Z,97720.73
2019-01-18T07:49:42.409Z,97723.90
2019-01-18T07:52:13.664Z,97722.95
2019-01-18T07:54:44.640Z,97718.95
2019-01-18T07:57:15.976Z,97713.25
2019-01-18T07:59:48.281Z,97726.09
2019-01-18T08:02:19.470Z,97717.16
2019-01-18T08:04:52.134Z,97731.53
2019-01-18T08:07:23.286Z,97728.48
2019-01-18T08:09:54.767Z,97736.92
2019-01-18T08:12:25.974Z,97740.77
2019-01-18T08:14:57.494Z,97739.44
2019-01-18T08:17:29.171Z,97739.82
2019-01-18T08:20:00.240Z,97747.31
2019-01-18T08:22:31.833Z,97750.21
2019-01-18T08:25:03.074Z,97756.48
2019-01-18T08:27:34.122Z,97761.10
2019-01-18T08:30:08.680Z,97761.34
2019-01-18T08:32:41.195Z,97763.50
2019-01-18T08:35:13.702Z,97759.89
2019-01-18T08:37:44.961Z,97770.48
2019-01-18T08:40:22.748Z,97767.94
2019-01-18T08:42:54.267Z,97770.39
2019-01-18T08:45:31.551Z,97777.50
2019-01-18T08:48:03.935Z,97780.78
2019-01-18T08:50:35.163Z,97776.84
2019-01-18T08:53:06.666Z,97784.00
2019-01-18T08:55:55.528Z,97799.06
2019-01-18T08:58:27.379Z,97805.67
2019-01-18T09:00:59.010Z,97797.72
2019-01-18T09:03:30.272Z,97800.62
2019-01-18T09:06:01.709Z,97801.05
2019-01-18T09:08:33.293Z,97815.45
2019-01-18T09:11:04.753Z,97825.17
2019-01-18T09:13:35.827Z,97828.69
2019-01-18T09:16:07.181Z,97833.74
2019-01-18T09:18:38.284Z,97837.63
2019-01-18T09:21:09.520Z,97842.91
2019-01-18T09:23:41.924Z,97842.30
2019-01-18T09:26:13.051Z,97853.02
2019-01-18T09:28:44.209Z,97857.23
2019-01-18T09:31:15.334Z,97863.48
2019-01-18T09:33:47.083Z,97877.92
2019-01-18T09:36:18.199Z,97874.53
2019-01-18T09:38:50.042Z,97866.43
2019-01-18T09:41:21.270Z,97878.88
2019-01-18T09:43:52.468Z,97871.47
2019-01-18T09:46:23.583Z,97883.09
2019-01-18T09:48:56.386Z,97883.71
2019-01-18T09:51:28.021Z,97890.44
2019-01-18T09:53:59.613Z,97887.03
2019-01-18T09:56:30.667Z,97888.83
2019-01-18T09:59:02.044Z,97899.56
2019-01-18T10:01:33.136Z,97891.65
2019-01-18T10:04:04.657Z,97887.64
2019-01-18T10:06:36.319Z,97893.39
2019-01-18T10:09:09.159Z,97893.09
2019-01-18T10:11:40.329Z,97901.45
2019-01-18T10:14:11.441Z,97908.06
2019-01-18T10:16:42.749Z,97910.63
2019-01-18T10:19:14.045Z,97913.18
2019-01-18T10:21:46.650Z,97914.52
2019-01-18T10:24:18.178Z,97919.62
2019-01-18T10:26:49.774Z,97925.74
2019-01-18T10:29:20.809Z,97934.81
2019-01-18T10:31:56.016Z,97950.78
2019-01-18T10:34:25.222Z,97934.30
2019-01-18T10:36:57.553Z,97945.70
2019-01-18T10:39:28.836Z,97954.61
2019-01-18T10:42:00.209Z,97943.72
2019-01-18T10:44:31.648Z,97934.77
2019-01-18T10:47:02.802Z,97936.36
2019-01-18T10:49:34.079Z,97951.16
2019-01-18T10:52:06.199Z,97947.22
2019-01-18T10:54:37.598Z,97947.22
2019-01-18T10:57:08.948Z,97956.40
2019-01-18T10:59:40.436Z,97938.97
2019-01-18T11:02:11.836Z,97954.56
2019-01-18T11:04:43.204Z,97966.14
2019-01-18T11:07:16.532Z,97946.55
2019-01-18T11:09:47.908Z,97964.84
2019-01-18T11:12:18.957Z,97957.05
2019-01-18T11:14:50.071Z,97982.42
2019-01-18T11:17:21.308Z,97964.11
2019-01-18T11:19:52.579Z,97967.34
2019-01-18T11:22:23.739Z,97939.48
2019-01-18T11:24:54.780Z,97965.35
2019-01-18T11:27:25.959Z,97959.00
2019-01-18T11:29:57.151Z,97976.25
2019-01-18T11:32:28.447Z,97980.14
2019-01-18T11:34:59.993Z,97987.89
2019-01-18T11:37:31.340Z,98019.25
2019-01-18T11:40:02.703Z,97991.89
2019-01-18T11:42:34.694Z,97971.13
2019-01-18T11:45:07.671Z,97991.66
2019-01-18T11:47:38.766Z,98004.19
2019-01-18T11:50:13.623Z,98027.14
2019-01-18T11:52:44.984Z,98048.13
2019-01-18T11:55:16.294Z,98017.14
2019-01-18T11:57:47.883Z,97997.66
2019-01-18T12:00:24.301Z,98053.70
2019-01-18T12:02:55.480Z,98001.80
2019-01-18T12:05:27.144Z,98018.03
2019-01-18T12:07:58.573Z,98006.47
2019-01-18T12:10:32.330Z,97998.05
2019-01-18T12:13:03.505Z,98013.33
2019-01-18T12:15:34.924Z,98010.87
2019-01-18T12:18:06.380Z,98017.36
2019-01-18T12:20:38.646Z,98005.88
2019-01-18T12:23:10.174Z,98016.85
2019-01-18T12:25:41.432Z,98007.78
2019-01-18T12:28:12.822Z,98021.81
2019-01-18T12:30:44.037Z,98030.05
2019-01-18T12:33:15.301Z,98034.63
2019-01-18T12:35:46.691Z,98031.96
2019-01-18T12:38:17.777Z,98042.01
2019-01-18T12:40:49.036Z,98046.49
2019-01-18T12:43:20.213Z,98045.66
2019-01-18T12:45:51.416Z,98055.04
2019-01-18T12:48:23.044Z,98061.00
2019-01-18T12:50:54.401Z,98055.09
2019-01-18T12:53:25.684Z,98080.82
2019-01-18T12:55:57.437Z,98070.08
2019-01-18T12:58:30.742Z,98084.58
2019-01-18T13:01:02.158Z,98076.45
2019-01-18T13:03:33.508Z,98077.91
2019-01-18T13:06:04.912Z,98094.07
2019-01-18T13:08:37.743Z,98090.66
2019-01-18T13:11:10.963Z,98093.30
2019-01-18T13:13:42.203Z,98084.81
2019-01-18T13:16:20.400Z,98077.91
2019-01-18T13:18:54.350Z,98100.10
2019-01-18T13:21:25.386Z,98104.20
2019-01-18T13:23:56.812Z,98095.35
2019-01-18T13:26:28.028Z,98110.72
2019-01-18T13:28:59.301Z,98099.53
2019-01-18T13:31:30.592Z,98113.02
2019-01-18T13:34:03.151Z,98116.81
2019-01-18T13:36:34.509Z,98168.77
2019-01-18T13:39:08.911Z,98143.98
2019-01-18T13:41:40.556Z,98158.60
2019-01-18T13:44:11.907Z,98152.27
2019-01-18T13:46:43.122Z,98144.39
2019-01-18T13:49:14.738Z,98192.52
2019-01-18T13:51:46.377Z,98159.33
2019-01-18T13:54:17.573Z,98206.80
2019-01-18T13:56:48.809Z,98181.07
2019-01-18T13:59:19.899Z,98184.94
2019-01-18T14:01:52.066Z,98170.09
2019-01-18T14:04:23.218Z,98173.41
2019-01-18T14:06:54.503Z,98180.53
2019-01-18T14:09:25.714Z,98192.69
2019-01-18T14:11:56.863Z,98201.51
2019-01-18T14:14:28.146Z,98199.40
2019-01-18T14:16:59.851Z,98194.87
2019-01-18T14:19:31.087Z,98223.31
2019-01-18T14:22:02.214Z,98215.82
2019-01-18T14:24:33.750Z,98217.83
2019-01-18T14:27:05.107Z,98216.30
2019-01-18T14:29:36.095Z,98222.43
2019-01-18T14:32:07.307Z,98223.20
2019-01-18T14:34:38.598Z,98242.13
2019-01-18T14:37:11.542Z,98221.77
2019-01-18T14:39:42.640Z,98243.38
2019-01-18T14:42:13.909Z,98235.73
2019-01-18T14:44:45.300Z,98245.75
2019-01-18T14:47:16.370Z,98265.73
2019-01-18T14:49:48.051Z,98253.38
2019-01-18T14:52:19.544Z,98252.55
2019-01-18T14:54:50.885Z,98271.14
2019-01-18T14:57:23.203Z,98250.72
2019-01-18T14:59:55.782Z,98271.00
2019-01-18T15:02:27.125Z,98275.55
2019-01-18T15:04:58.222Z,98278.38
2019-01-18T15:07:30.248Z,98284.05
2019-01-18T15:10:05.156Z,98301.72
2019-01-18T15:12:34.979Z,98292.73
2019-01-18T15:15:07.254Z,98298.92
2019-01-18T15:17:38.305Z,98301.08
2019-01-18T15:20:16.713Z,98306.58
2019-01-18T15:22:48.575Z,98335.58
2019-01-18T15:25:20.248Z,98325.41
2019-01-18T15:27:51.453Z,98334.27
2019-01-18T15:30:27.800Z,98326.47
2019-01-18T15:33:00.698Z,98338.61
2019-01-18T15:35:34.109Z,98336.45
2019-01-18T15:38:17.845Z,98367.27
2019-01-18T15:40:50.120Z,98362.78
2019-01-18T15:43:22.942Z,98355.92
2019-01-18T15:45:54.186Z,98369.79
2019-01-18T15:48:25.425Z,98357.80
2019-01-18T15:50:56.743Z,98368.11
2019-01-18T15:53:29.072Z,98369.64
2019-01-18T15:56:00.550Z,98368.11
2019-01-18T15:58:34.306Z,98370.44
2019-01-18T16:01:05.950Z,98383.26
2019-01-18T16:03:38.200Z,98385.23
2019-01-18T16:06:09.358Z,98387.89
2019-01-18T16:08:40.666Z,98387.41
2019-01-18T16:11:11.763Z,98407.39
2019-01-18T16:13:43.017Z,98402.06
2019-01-18T16:16:37.416Z,98404.42
2019-01-18T16:19:08.818Z,98402.94
2019-01-18T16:21:40.262Z,98397.42
2019-01-18T16:24:11.487Z,98390.12
2019-01-18T16:26:42.761Z,98399.30
2019-01-18T16:29:13.867Z,98403.34
2019-01-18T16:31:44.997Z,98414.80
2019-01-18T16:34:16.228Z,98414.14
2019-01-18T16:36:47.460Z,98418.14
2019-01-18T16:39:18.607Z,98417.65
2019-01-18T16:41:49.960Z,98416.47
2019-01-18T16:44:21.300Z,98427.12
2019-01-18T16:46:52.979Z,98428.50
2019-01-18T16:49:24.365Z,98437.68
2019-01-18T16:51:57.396Z,98431.02
2019-01-18T16:54:28.761Z,98451.37
2019-01-18T16:57:00.060Z,98445.67
2019-01-18T16:59:31.278Z,98450.83
2019-01-18T17:02:02.524Z,98456.31
2019-01-18T17:04:33.852Z,98459.77
2019-01-18T17:07:05.118Z,98465.78
2019-01-18T17:09:36.439Z,98460.45
2019-01-18T17:12:07.648Z,98463.13
2019-01-18T17:14:39.037Z,98484.92
2019-01-18T17:17:10.122Z,98465.29
2019-01-18T17:19:41.472Z,98474.45
2019-01-18T17:22:12.790Z,98484.27
2019-01-18T17:24:44.059Z,98481.11
2019-01-18T17:27:15.071Z,98480.28
2019-01-18T17:29:46.196Z,98479.13
2019-01-18T17:32:17.570Z,98487.31
2019-01-18T17:34:49.079Z,98480.80
2019-01-18T17:37:25.595Z,98501.92
2019-01-18T17:40:27.413Z,98491.77
2019-01-18T17:43:36.457Z,98499.26
2019-01-18T17:47:12.412Z,98502.60
2019-01-18T17:50:26.191Z,98505.94
2019-01-18T17:53:24.751Z,98521.08
2019-01-18T17:56:11.985Z,98523.41
2019-01-18T17:59:14.590Z,98522.08
2019-01-18T18:02:26.870Z,98523.41
2019-01-18T18:05:42.919Z,98532.06
2019-01-18T18:08:39.529Z,98541.88
2019-01-18T18:11:36.051Z,98545.53
2019-01-18T18:14:42.987Z,98545.05
2019-01-18T18:17:55.311Z,98542.84
2019-01-18T18:21:17.322Z,98555.88
2019-01-18T18:24:06.661Z,98560.20
2019-01-18T18:27:13.959Z,98558.03
2019-01-18T18:30:37.973Z,98568.03
2019-01-18T18:33:59.056Z,98585.49
2019-01-18T18:37:13.065Z,98577.51
2019-01-18T18:40:27.618Z,98597.63
2019-01-18T18:43:31.712Z,98590.31
2019-01-18T18:46:44.927Z,98591.16
2019-01-18T18:49:53.073Z,98588.82
2019-01-18T18:53:05.003Z,98593.83
2019-01-18T18:56:17.955Z,98605.45
2019-01-18T18:59:40.590Z,98611.45
2019-01-18T19:02:39.540Z,98600.98
2019-01-18T19:05:43.936Z,98603.47
2019-01-18T19:08:45.492Z,98615.79
2019-01-18T19:11:49.206Z,98619.11
2019-01-18T19:14:58.229Z,98622.09
2019-01-18T19:18:02.031Z,98616.95
2019-01-18T19:21:08.836Z,98621.45
2019-01-18T19:24:22.070Z,98621.61
2019-01-18T19:27:08.477Z,98623.91
2019-01-18T19:30:18.165Z,98632.06
2019-01-18T19:33:23.199Z,98639.23
2019-01-18T19:36:44.342Z,98636.05
2019-01-18T19:40:16.410Z,98644.39
2019-01-18T19:43:49.958Z,98655.35
2019-01-18T19:46:47.576Z,98661.36
2019-01-18T19:50:11.351Z,98661.36
2019-01-18T19:53:13.597Z,98655.20
2019-01-18T19:56:37.654Z,98657.35
2019-01-18T20:00:02.336Z,98672.31
2019-01-18T20:03:04.549Z,98687.78
2019-01-18T20:05:56.554Z,98676.81
2019-01-18T20:09:02.159Z,98694.41
2019-01-18T20:12:24.347Z,98684.42
2019-01-18T20:15:36.225Z,98686.42
2019-01-18T20:19:03.352Z,98692.73
2019-01-18T20:22:01.764Z,98693.86
2019-01-18T20:25:05.611Z,98707.44
2019-01-18T20:28:08.298Z,98707.46
2019-01-18T20:31:19.083Z,98705.27
2019-01-18T20:34:18.365Z,98711.59
2019-01-18T20:37:05.465Z,98709.58
2019-01-18T20:40:09.826Z,98710.73
2019-01-18T20:43:13.205Z,98720.84
2019-01-18T20:46:41.335Z,98724.16
2019-01-18T20:50:05.218Z,98732.00
2019-01-18T20:53:14.053Z,98741.93
2019-01-18T20:56:22.835Z,98749.42
2019-01-18T20:59:21.063Z,98745.29
2019-01-18T21:03:06.572Z,98743.41
2019-01-18T21:06:21.242Z,98751.76
2019-01-18T21:09:29.288Z,98767.50
2019-01-18T21:12:31.668Z,98765.19
2019-01-18T21:15:17.573Z,98763.34
2019-01-18T21:18:24.099Z,98763.02
2019-01-18T21:21:25.046Z,98761.69
2019-01-18T21:24:35.703Z,98765.61
2019-01-18T21:27:34.801Z,98763.65
2019-01-18T21:30:34.350Z,98774.03
2019-01-18T21:33:38.285Z,98771.94
2019-01-18T21:36:59.002Z,98766.76
2019-01-18T21:40:17.258Z,98779.02
2019-01-18T21:43:04.238Z,98782.70
2019-01-18T21:46:21.481Z,98785.19
2019-01-18T21:49:31.481Z,98789.97
2019-01-18T21:52:58.441Z,98794.17
2019-01-18T21:56:05.611Z,98806.31
2019-01-18T21:59:28.574Z,98802.95
2019-01-18T22:02:50.013Z,98797.18
2019-01-18T22:05:53.559Z,98801.44
2019-01-18T22:08:53.421Z,98797.75
2019-01-18T22:11:39.581Z,98793.91
2019-01-18T22:14:54.860Z,98803.95
2019-01-18T22:17:57.346Z,98812.22
2019-01-18T22:20:44.517Z,98807.22
2019-01-18T22:23:57.060Z,98799.69
2019-01-18T22:26:53.069Z,98810.66
2019-01-18T22:30:01.166Z,98807.64
2019-01-18T22:32:46.709Z,98807.95
2019-01-18T22:35:50.035Z,98809.53
2019-01-18T22:39:00.953Z,98815.69
2019-01-18T22:42:27.084Z,98812.89
2019-01-18T22:45:25.507Z,98813.52
2019-01-18T22:48:11.621Z,98819.34
2019-01-18T22:51:26.138Z,98817.06
2019-01-18T22:54:21.704Z,98813.09
2019-01-18T22:57:30.581Z,98811.99
2019-01-18T23:00:55.653Z,98809.20
2019-01-18T23:04:08.400Z,98800.59
2019-01-18T23:07:26.281Z,98806.42
2019-01-18T23:10:53.188Z,98800.94
2019-01-18T23:13:55.079Z,98795.94
2019-01-18T23:17:16.118Z,98791.02
2019-01-18T23:20:43.046Z,98791.33
2019-01-18T23:23:54.184Z,98781.02
2019-01-18T23:27:03.992Z,98788.13
2019-01-18T23:30:18.397Z,98786.94
2019-01-18T23:33:22.785Z,98779.28
2019-01-18T23:36:37.941Z,98778.45
2019-01-18T23:39:27.367Z,98782.96
2019-01-18T23:42:41.206Z,98786.70
2019-01-18T23:45:43.596Z,98780.86
2019-01-18T23:49:07.651Z,98782.27
2019-01-18T23:52:22.382Z,98771.28
2019-01-18T23:55:15.579Z,98773.03
2019-01-18T23:58:22.924Z,98775.44
